Hlavní strana
METAR-TAF:

METAR-TAF

Letiště :

Pskov, Rusko

zeměpisná šířka: 57-47-06N, zeměpisná délka: 028-23-54E, výška: 47 m

Aktuální stav počasí

Zpráva byla vytvořena před 48 minutami, v 02:00 UTC
Bezvětří
Teplota 1°C
Vlhkost vzduchu 100%
Tlak 1010 hPa
Viditelnost 10 km a více
Oblačno až skoro zataženo ve výšce 4200 ft

METAR: ULOO 270200Z 00000MPS 9999 BKN042 01/01 Q1010 R19/090060 NOSIG RMK QFE753

Čas: 05:48 (02:48 UTC)

Předpověď počasí

Zpráva byla vytvořena před 54 minutami, v 01:54 UTC
Předpověď platná od 27 v 03 UTC do 27 v 12 UTC
Východní vítr 6 kt
Viditelnost: 8000 m
Polojasno ve výšce 4000 ft
Dočasný
od 27 v 03 UTC do 27 v 06 UTC
Viditelnost: 0300 m
Oblačno až skoro zataženo ve výšce 200 ft
mlha

TAF: ULOO 270154Z 2703/2712 10003MPS 8000 SCT040 TEMPO 2703/2706 0300 FG BKN002

Stav a předpovědi počasí z více než 4 000 letišť (zprávy METAR a TAF).

Červené a žluté tečky na mapě představují dostupné meteorologické stanice.

Když kurzor umístíte na tečku, zobrazí se název stanice.

Pak kliknutím zobrazíte stav a předpověď počasí.

Chcete-li změnit mapu, kliknutím na zelené tlačítko se znaménkem +mapu přiblížíte, kliknutím na zelené tlačítko se znaménkem – mapu oddálíte a kliknutím na zelené šipky přejdete na sousední mapy.


METAR-TAF: